createdAt,value
2019-01-27T00:01:54.499Z,97.10
2019-01-27T00:04:25.113Z,97.00
2019-01-27T00:06:55.592Z,96.90
2019-01-27T00:09:26.162Z,96.90
2019-01-27T00:11:56.904Z,96.80
2019-01-27T00:14:27.398Z,96.80
2019-01-27T00:16:58.032Z,96.60
2019-01-27T00:19:28.431Z,96.50
2019-01-27T00:21:58.933Z,96.60
2019-01-27T00:24:29.509Z,96.60
2019-01-27T00:27:00.092Z,96.60
2019-01-27T00:29:30.623Z,96.60
2019-01-27T00:32:00.970Z,96.60
2019-01-27T00:34:31.502Z,96.50
2019-01-27T00:37:01.900Z,96.70
2019-01-27T00:39:32.683Z,96.50
2019-01-27T00:42:03.186Z,96.60
2019-01-27T00:44:33.741Z,96.60
2019-01-27T00:47:04.075Z,96.80
2019-01-27T00:49:34.491Z,96.50
2019-01-27T00:52:06.493Z,96.60
2019-01-27T00:54:37.252Z,96.50
2019-01-27T00:57:08.183Z,96.50
2019-01-27T00:59:38.995Z,96.60
2019-01-27T01:02:11.137Z,96.60
2019-01-27T01:04:42.845Z,96.60
2019-01-27T01:07:13.341Z,96.60
2019-01-27T01:09:43.910Z,96.60
2019-01-27T01:12:14.263Z,96.70
2019-01-27T01:14:44.947Z,96.80
2019-01-27T01:17:15.440Z,96.70
2019-01-27T01:19:46.006Z,96.80
2019-01-27T01:22:17.412Z,96.70
2019-01-27T01:24:47.931Z,96.70
2019-01-27T01:27:18.352Z,96.70
2019-01-27T01:29:49.201Z,96.70
2019-01-27T01:32:19.465Z,96.70
2019-01-27T01:34:49.739Z,96.80
2019-01-27T01:37:22.469Z,96.80
2019-01-27T01:39:52.785Z,96.70
2019-01-27T01:42:23.500Z,96.80
2019-01-27T01:44:54.049Z,96.70
2019-01-27T01:47:24.507Z,96.80
2019-01-27T01:49:54.806Z,96.70
2019-01-27T01:52:25.134Z,96.50
2019-01-27T01:54:55.580Z,96.60
2019-01-27T01:57:26.294Z,96.60
2019-01-27T01:59:56.751Z,96.60
2019-01-27T02:02:27.158Z,96.60
2019-01-27T02:04:57.494Z,96.60
2019-01-27T02:07:28.123Z,96.60
2019-01-27T02:09:58.832Z,96.70
2019-01-27T02:12:29.291Z,96.60
2019-01-27T02:14:59.821Z,96.80
2019-01-27T02:17:30.170Z,96.70
2019-01-27T02:20:00.984Z,96.70
2019-01-27T02:22:31.501Z,96.60
2019-01-27T02:25:02.301Z,97.00
2019-01-27T02:27:32.801Z,96.60
2019-01-27T02:30:03.330Z,96.70
2019-01-27T02:32:34.113Z,96.60
2019-01-27T02:35:04.664Z,96.60
2019-01-27T02:37:36.237Z,96.50
2019-01-27T02:40:07.066Z,96.50
2019-01-27T02:42:37.337Z,96.60
2019-01-27T02:45:08.007Z,96.50
2019-01-27T02:47:38.636Z,96.50
2019-01-27T02:50:09.250Z,96.60
2019-01-27T02:52:39.810Z,96.70
2019-01-27T02:55:10.436Z,96.80
2019-01-27T02:57:40.759Z,96.70
2019-01-27T03:00:12.099Z,96.70
2019-01-27T03:02:42.883Z,96.80
2019-01-27T03:05:34.829Z,96.90
2019-01-27T03:08:05.556Z,96.80
2019-01-27T03:10:35.806Z,96.80
2019-01-27T03:13:06.411Z,96.90
2019-01-27T03:15:36.881Z,96.80
2019-01-27T03:18:07.382Z,96.80
2019-01-27T03:20:37.885Z,96.80
2019-01-27T03:23:08.330Z,96.80
2019-01-27T03:25:38.758Z,96.90
2019-01-27T03:28:09.110Z,96.80
2019-01-27T03:30:39.410Z,96.90
2019-01-27T03:33:09.866Z,96.80
2019-01-27T03:35:40.532Z,96.80
2019-01-27T03:38:10.853Z,96.80
2019-01-27T03:40:41.482Z,96.70
2019-01-27T03:43:13.226Z,96.70
2019-01-27T03:45:43.649Z,97.10
2019-01-27T03:48:13.993Z,96.70
2019-01-27T03:50:44.460Z,96.70
2019-01-27T03:53:14.723Z,96.70
2019-01-27T03:55:45.313Z,96.70
2019-01-27T03:58:15.595Z,96.70
2019-01-27T04:00:46.130Z,96.70
2019-01-27T04:03:16.603Z,96.70
2019-01-27T04:05:47.136Z,96.60
2019-01-27T04:08:17.502Z,97.00
2019-01-27T04:10:47.973Z,96.60
2019-01-27T04:13:18.362Z,96.60
2019-01-27T04:15:49.376Z,96.60
2019-01-27T04:18:19.837Z,96.50
2019-01-27T04:20:50.377Z,96.40
2019-01-27T04:23:20.944Z,96.40
2019-01-27T04:25:52.319Z,96.20
2019-01-27T04:28:24.919Z,96.30
2019-01-27T04:30:55.552Z,96.30
2019-01-27T04:33:26.259Z,96.20
2019-01-27T04:35:56.691Z,96.20
2019-01-27T04:38:26.980Z,96.20
2019-01-27T04:40:57.598Z,96.10
2019-01-27T04:43:28.348Z,96.10
2019-01-27T04:45:58.977Z,96.10
2019-01-27T04:48:29.282Z,96.20
2019-01-27T04:50:59.914Z,96.10
2019-01-27T04:53:30.303Z,96.10
2019-01-27T04:56:00.871Z,96.20
2019-01-27T04:58:31.258Z,96.30
2019-01-27T05:01:01.874Z,96.10
2019-01-27T05:03:50.616Z,96.20
2019-01-27T05:06:21.024Z,96.10
2019-01-27T05:08:51.339Z,96.20
2019-01-27T05:11:22.802Z,96.20
2019-01-27T05:13:53.377Z,96.20
2019-01-27T05:16:24.056Z,96.20
2019-01-27T05:18:54.393Z,96.20
2019-01-27T05:21:24.819Z,96.30
2019-01-27T05:23:56.357Z,96.40
2019-01-27T05:26:27.030Z,96.40
2019-01-27T05:29:06.621Z,96.30
2019-01-27T05:31:36.941Z,96.40
2019-01-27T05:34:07.646Z,96.40
2019-01-27T05:36:38.053Z,96.40
2019-01-27T05:39:09.211Z,96.40
2019-01-27T05:41:39.487Z,96.40
2019-01-27T05:44:09.836Z,96.40
2019-01-27T05:46:40.150Z,96.40
2019-01-27T05:49:10.403Z,96.50
2019-01-27T05:51:41.663Z,96.50
2019-01-27T05:54:12.469Z,96.60
2019-01-27T05:56:43.030Z,96.60
2019-01-27T05:59:14.299Z,96.60
2019-01-27T06:01:44.718Z,96.80
2019-01-27T06:04:16.402Z,96.90
2019-01-27T06:06:48.403Z,96.90
2019-01-27T06:09:18.699Z,96.90
2019-01-27T06:11:49.877Z,96.90
2019-01-27T06:14:20.573Z,97.10
2019-01-27T06:16:51.240Z,97.20
2019-01-27T06:19:21.731Z,97.40
2019-01-27T06:21:52.093Z,97.50
2019-01-27T06:24:22.875Z,97.50
2019-01-27T06:26:53.834Z,97.50
2019-01-27T06:29:24.361Z,97.40
2019-01-27T06:31:55.147Z,97.30
2019-01-27T06:34:25.870Z,97.40
2019-01-27T06:36:57.286Z,97.40
2019-01-27T06:39:28.060Z,97.40
2019-01-27T06:41:58.384Z,97.40
2019-01-27T06:44:29.146Z,97.40
2019-01-27T06:46:59.620Z,97.30
2019-01-27T06:49:29.914Z,97.30
2019-01-27T06:52:00.454Z,97.20
2019-01-27T06:54:30.810Z,97.10
2019-01-27T06:57:01.120Z,96.90
2019-01-27T06:59:53.541Z,96.90
2019-01-27T07:02:41.042Z,96.80
2019-01-27T07:05:28.722Z,96.80
2019-01-27T07:08:11.051Z,96.80
2019-01-27T07:11:00.217Z,96.60
2019-01-27T07:14:08.185Z,96.50
2019-01-27T07:17:00.277Z,96.40
2019-01-27T07:19:48.084Z,96.30
2019-01-27T07:22:43.093Z,96.30
2019-01-27T07:25:25.048Z,96.20
2019-01-27T07:28:20.332Z,96.00
2019-01-27T07:31:09.203Z,95.80
2019-01-27T07:34:02.530Z,95.60
2019-01-27T07:36:50.974Z,95.50
2019-01-27T07:39:50.172Z,95.30
2019-01-27T07:42:42.302Z,95.00
2019-01-27T07:45:22.491Z,94.90
2019-01-27T07:48:11.771Z,94.70
2019-01-27T07:50:58.804Z,94.60
2019-01-27T07:53:46.846Z,94.90
2019-01-27T07:56:35.639Z,94.40
2019-01-27T07:59:40.177Z,94.30
2019-01-27T08:02:39.147Z,94.30
2019-01-27T08:05:29.769Z,94.10
2019-01-27T08:08:26.132Z,94.00
2019-01-27T08:11:18.503Z,93.60
2019-01-27T08:14:06.509Z,93.30
2019-01-27T08:16:53.005Z,92.80
2019-01-27T08:19:54.741Z,92.10
2019-01-27T08:23:02.924Z,91.80
2019-01-27T08:25:53.446Z,91.50
2019-01-27T08:28:48.613Z,91.30
2019-01-27T08:31:40.838Z,91.30
2019-01-27T08:34:32.398Z,91.20
2019-01-27T08:37:10.892Z,91.20
2019-01-27T08:40:09.877Z,91.30
2019-01-27T08:42:53.774Z,91.40
2019-01-27T08:45:46.278Z,91.50
2019-01-27T08:48:18.032Z,91.50
2019-01-27T08:50:48.715Z,91.60
2019-01-27T08:53:19.430Z,92.00
2019-01-27T08:55:49.863Z,91.30
2019-01-27T08:58:20.584Z,91.20
2019-01-27T09:01:08.933Z,91.00
2019-01-27T09:03:55.139Z,90.80
2019-01-27T09:06:41.620Z,90.60
2019-01-27T09:09:30.929Z,90.40
2019-01-27T09:12:29.275Z,90.80
2019-01-27T09:15:18.447Z,90.50
2019-01-27T09:18:08.767Z,90.50
2019-01-27T09:20:48.947Z,90.60
2019-01-27T09:23:32.062Z,90.70
2019-01-27T09:26:20.562Z,90.50
2019-01-27T09:29:03.013Z,90.70
2019-01-27T09:31:58.860Z,90.90
2019-01-27T09:34:59.946Z,91.10
2019-01-27T09:37:52.132Z,91.10
2019-01-27T09:40:45.642Z,91.00
2019-01-27T09:43:38.240Z,91.00
2019-01-27T09:46:39.596Z,90.90
2019-01-27T09:49:27.503Z,91.00
2019-01-27T09:52:19.192Z,90.90
2019-01-27T09:55:11.262Z,90.90
2019-01-27T09:58:00.730Z,90.70
2019-01-27T10:00:39.893Z,90.60
2019-01-27T10:03:16.590Z,90.40
2019-01-27T10:06:04.841Z,90.10
2019-01-27T10:08:53.900Z,90.00
2019-01-27T10:11:55.251Z,90.00
2019-01-27T10:14:43.205Z,89.60
2019-01-27T10:17:35.400Z,89.70
2019-01-27T10:20:34.662Z,89.80
2019-01-27T10:23:20.767Z,89.60
2019-01-27T10:26:18.905Z,89.60
2019-01-27T10:29:01.144Z,90.20
2019-01-27T10:31:45.861Z,90.00
2019-01-27T10:34:44.566Z,90.00
2019-01-27T10:37:33.927Z,90.10
2019-01-27T10:40:17.173Z,90.00
2019-01-27T10:42:53.692Z,89.80
2019-01-27T10:45:55.252Z,89.80
2019-01-27T10:48:43.650Z,89.60
2019-01-27T10:51:35.966Z,89.10
2019-01-27T10:54:13.976Z,88.90
2019-01-27T10:57:03.224Z,88.90
2019-01-27T10:59:44.100Z,88.40
2019-01-27T11:02:42.942Z,88.40
2019-01-27T11:05:31.951Z,88.50
2019-01-27T11:08:09.067Z,88.70
2019-01-27T11:10:57.131Z,88.30
2019-01-27T11:13:36.973Z,88.30
2019-01-27T11:16:20.310Z,88.50
2019-01-27T11:19:00.480Z,89.00
2019-01-27T11:21:44.511Z,88.50
2019-01-27T11:24:21.261Z,88.50
2019-01-27T11:27:07.284Z,88.40
2019-01-27T11:30:06.017Z,88.20
2019-01-27T11:32:58.438Z,88.20
2019-01-27T11:35:43.728Z,88.60
2019-01-27T11:38:37.730Z,88.50
2019-01-27T11:41:40.900Z,88.70
2019-01-27T11:44:32.518Z,88.30
2019-01-27T11:47:20.532Z,88.40
2019-01-27T11:49:58.367Z,88.30
2019-01-27T11:52:32.526Z,87.90
2019-01-27T11:55:03.152Z,87.80
2019-01-27T11:57:33.880Z,88.00
2019-01-27T12:00:04.634Z,88.00
2019-01-27T12:02:35.063Z,88.00
2019-01-27T12:05:05.402Z,87.70
2019-01-27T12:07:36.010Z,87.50
2019-01-27T12:10:08.690Z,87.40
2019-01-27T12:12:39.256Z,87.30
2019-01-27T12:15:12.853Z,87.30
2019-01-27T12:17:43.284Z,86.50
2019-01-27T12:20:13.769Z,85.30
2019-01-27T12:22:44.782Z,84.90
2019-01-27T12:25:15.458Z,85.60
2019-01-27T12:27:46.077Z,84.60
2019-01-27T12:30:18.270Z,84.40
2019-01-27T12:32:50.208Z,84.60
2019-01-27T12:35:20.924Z,84.10
2019-01-27T12:37:51.437Z,83.50
2019-01-27T12:40:23.978Z,83.10
2019-01-27T12:42:54.533Z,83.30
2019-01-27T12:45:24.890Z,83.30
2019-01-27T12:47:55.245Z,83.10
2019-01-27T12:50:25.708Z,83.20
2019-01-27T12:52:56.092Z,83.60
2019-01-27T12:55:26.993Z,84.00
2019-01-27T12:57:57.509Z,84.20
2019-01-27T13:00:34.007Z,84.50
2019-01-27T13:03:05.635Z,84.90
2019-01-27T13:05:36.438Z,84.80
2019-01-27T13:08:06.779Z,85.40
2019-01-27T13:10:37.292Z,85.60
2019-01-27T13:13:11.916Z,85.50
2019-01-27T13:15:40.020Z,85.30
2019-01-27T13:18:10.887Z,85.30
2019-01-27T13:20:41.807Z,84.70
2019-01-27T13:23:14.463Z,84.80
2019-01-27T13:25:45.037Z,84.70
2019-01-27T13:28:15.539Z,84.50
2019-01-27T13:30:48.071Z,84.30
2019-01-27T13:33:18.667Z,84.70
2019-01-27T13:35:49.053Z,84.90
2019-01-27T13:38:19.438Z,85.30
2019-01-27T13:40:50.194Z,85.20
2019-01-27T13:43:20.976Z,85.30
2019-01-27T13:45:51.379Z,85.20
2019-01-27T13:48:21.872Z,85.10
2019-01-27T13:50:52.324Z,84.70
2019-01-27T13:53:22.880Z,84.70
2019-01-27T13:55:53.420Z,84.70
2019-01-27T13:58:23.842Z,83.60
2019-01-27T14:00:54.235Z,82.80
2019-01-27T14:03:26.978Z,82.20
2019-01-27T14:05:57.754Z,82.20
2019-01-27T14:08:29.021Z,80.40
2019-01-27T14:10:59.486Z,80.30
2019-01-27T14:13:30.072Z,80.30
2019-01-27T14:16:01.381Z,79.50
2019-01-27T14:18:31.908Z,78.70
2019-01-27T14:21:02.463Z,78.20
2019-01-27T14:23:32.991Z,78.10
2019-01-27T14:26:03.482Z,77.70
2019-01-27T14:28:34.011Z,77.10
2019-01-27T14:31:04.669Z,76.70
2019-01-27T14:33:35.357Z,77.00
2019-01-27T14:36:06.122Z,76.60
2019-01-27T14:38:37.901Z,76.20
2019-01-27T14:41:08.542Z,76.40
2019-01-27T14:43:39.216Z,76.30
2019-01-27T14:46:09.683Z,77.00
2019-01-27T14:48:40.427Z,76.30
2019-01-27T14:51:11.039Z,76.70
2019-01-27T14:53:42.017Z,76.10
2019-01-27T14:56:12.573Z,76.20
2019-01-27T14:58:43.259Z,76.00
2019-01-27T15:01:13.617Z,75.90
2019-01-27T15:03:43.941Z,75.70
2019-01-27T15:06:14.461Z,75.80
2019-01-27T15:08:46.009Z,75.80
2019-01-27T15:11:17.118Z,75.30
2019-01-27T15:13:47.711Z,75.10
2019-01-27T15:16:17.974Z,75.30
2019-01-27T15:18:49.225Z,75.00
2019-01-27T15:21:22.857Z,75.10
2019-01-27T15:23:53.226Z,74.60
2019-01-27T15:26:24.064Z,74.50
2019-01-27T15:28:54.774Z,74.90
2019-01-27T15:31:25.387Z,75.00
2019-01-27T15:33:56.091Z,74.70
2019-01-27T15:36:26.862Z,74.20
2019-01-27T15:38:57.433Z,74.10
2019-01-27T15:41:28.223Z,73.20
2019-01-27T15:43:59.067Z,73.80
2019-01-27T15:46:29.545Z,73.00
2019-01-27T15:48:59.877Z,73.00
2019-01-27T15:51:30.660Z,72.90
2019-01-27T15:54:00.954Z,72.40
2019-01-27T15:56:31.614Z,72.70
2019-01-27T15:59:01.875Z,72.30
2019-01-27T16:01:32.451Z,72.30
2019-01-27T16:04:03.549Z,72.10
2019-01-27T16:06:35.245Z,72.10
2019-01-27T16:09:07.479Z,72.40
2019-01-27T16:11:39.272Z,72.70
2019-01-27T16:14:10.107Z,72.70
2019-01-27T16:16:40.653Z,72.40
2019-01-27T16:19:11.272Z,72.50
2019-01-27T16:21:41.970Z,72.80
2019-01-27T16:24:37.562Z,72.70
2019-01-27T16:27:08.201Z,72.60
2019-01-27T16:29:59.994Z,73.40
2019-01-27T16:32:36.156Z,73.40
2019-01-27T16:35:11.820Z,73.40
2019-01-27T16:37:42.256Z,74.10
2019-01-27T16:40:14.963Z,74.60
2019-01-27T16:42:45.574Z,74.90
2019-01-27T16:45:16.556Z,75.30
2019-01-27T16:47:47.449Z,75.50
2019-01-27T16:50:18.109Z,75.90
2019-01-27T16:52:48.674Z,75.90
2019-01-27T16:55:19.242Z,75.80
2019-01-27T16:57:50.614Z,75.70
2019-01-27T17:00:24.473Z,76.10
2019-01-27T17:02:55.064Z,76.10
2019-01-27T17:05:26.131Z,76.40
2019-01-27T17:07:57.912Z,77.10
2019-01-27T17:10:29.686Z,78.00
2019-01-27T17:13:00.436Z,77.50
2019-01-27T17:15:31.412Z,77.90
2019-01-27T17:18:05.378Z,77.50
2019-01-27T17:20:36.306Z,78.70
2019-01-27T17:23:07.404Z,77.70
2019-01-27T17:25:37.824Z,77.70
2019-01-27T17:28:09.350Z,78.10
2019-01-27T17:30:40.171Z,77.90
2019-01-27T17:33:10.963Z,78.10
2019-01-27T17:35:41.939Z,78.10
2019-01-27T17:38:12.570Z,77.60
2019-01-27T17:40:43.840Z,77.90
2019-01-27T17:43:14.936Z,78.20
2019-01-27T17:45:45.697Z,78.10
2019-01-27T17:48:17.573Z,77.80
2019-01-27T17:50:48.647Z,78.10
2019-01-27T17:53:19.576Z,78.20
2019-01-27T17:55:53.951Z,78.50
2019-01-27T17:58:54.566Z,78.50
2019-01-27T18:02:04.154Z,78.50
2019-01-27T18:04:45.626Z,78.40
2019-01-27T18:07:48.075Z,78.10
2019-01-27T18:10:42.304Z,77.70
2019-01-27T18:13:20.235Z,78.50
2019-01-27T18:15:52.771Z,78.00
2019-01-27T18:18:23.676Z,77.70
2019-01-27T18:20:56.256Z,77.60
2019-01-27T18:23:29.547Z,77.50
2019-01-27T18:26:00.047Z,77.10
2019-01-27T18:28:31.982Z,77.60
2019-01-27T18:31:02.844Z,77.30
2019-01-27T18:33:36.128Z,77.10
2019-01-27T18:36:08.144Z,77.20
2019-01-27T18:38:41.669Z,77.10
2019-01-27T18:41:12.532Z,77.00
2019-01-27T18:43:44.749Z,77.10
2019-01-27T18:46:15.493Z,77.60
2019-01-27T18:48:46.107Z,77.40
2019-01-27T18:51:17.272Z,77.80
2019-01-27T18:53:59.825Z,78.70
2019-01-27T18:57:06.388Z,78.10
2019-01-27T18:59:55.806Z,79.40
2019-01-27T19:02:35.598Z,78.20
2019-01-27T19:05:22.636Z,78.70
2019-01-27T19:08:11.238Z,79.10
2019-01-27T19:11:00.830Z,79.00
2019-01-27T19:13:56.076Z,79.30
2019-01-27T19:16:45.540Z,79.10
2019-01-27T19:19:45.403Z,79.60
2019-01-27T19:22:40.680Z,80.00
2019-01-27T19:25:28.540Z,80.20
2019-01-27T19:28:08.779Z,80.60
2019-01-27T19:31:03.217Z,80.60
2019-01-27T19:34:12.147Z,80.60
2019-01-27T19:37:10.365Z,80.90
2019-01-27T19:39:55.414Z,81.30
2019-01-27T19:43:03.639Z,81.60
2019-01-27T19:45:58.744Z,81.60
2019-01-27T19:48:41.669Z,81.80
2019-01-27T19:51:29.682Z,81.90
2019-01-27T19:54:25.560Z,82.50
2019-01-27T19:57:18.477Z,82.50
2019-01-27T19:59:55.850Z,82.40
2019-01-27T20:02:54.573Z,82.10
2019-01-27T20:05:34.311Z,83.60
2019-01-27T20:08:23.924Z,82.90
2019-01-27T20:11:03.062Z,82.10
2019-01-27T20:13:51.225Z,81.90
2019-01-27T20:16:39.201Z,82.50
2019-01-27T20:19:32.172Z,82.30
2019-01-27T20:22:21.968Z,81.90
2019-01-27T20:25:11.232Z,82.70
2019-01-27T20:27:57.513Z,83.40
2019-01-27T20:30:47.008Z,83.60
2019-01-27T20:33:29.755Z,83.80
2019-01-27T20:36:12.056Z,84.20
2019-01-27T20:38:54.161Z,84.60
2019-01-27T20:41:55.883Z,84.70
2019-01-27T20:44:45.734Z,85.00
2019-01-27T20:47:48.146Z,85.30
2019-01-27T20:50:41.465Z,85.50
2019-01-27T20:53:36.944Z,85.80
2019-01-27T20:56:25.466Z,86.00
2019-01-27T20:59:24.172Z,86.40
2019-01-27T21:02:13.678Z,86.60
2019-01-27T21:04:56.561Z,86.80
2019-01-27T21:07:48.456Z,86.90
2019-01-27T21:10:56.570Z,87.10
2019-01-27T21:13:55.105Z,86.90
2019-01-27T21:17:05.707Z,86.90
2019-01-27T21:19:42.125Z,86.80
2019-01-27T21:22:15.183Z,86.50
2019-01-27T21:24:46.124Z,86.30
2019-01-27T21:27:16.527Z,86.30
2019-01-27T21:29:47.210Z,86.30
2019-01-27T21:32:18.591Z,86.00
2019-01-27T21:34:49.113Z,86.20
2019-01-27T21:37:20.025Z,86.00
2019-01-27T21:39:50.806Z,86.00
2019-01-27T21:42:21.342Z,86.00
2019-01-27T21:44:52.641Z,85.80
2019-01-27T21:47:23.108Z,85.60
2019-01-27T21:49:53.544Z,85.30
2019-01-27T21:52:23.923Z,85.30
2019-01-27T21:54:54.394Z,85.20
2019-01-27T21:57:25.894Z,85.00
2019-01-27T21:59:56.314Z,84.90
2019-01-27T22:02:27.314Z,84.50
2019-01-27T22:04:57.914Z,85.00
2019-01-27T22:07:28.343Z,85.30
2019-01-27T22:09:58.744Z,85.50
2019-01-27T22:12:29.338Z,85.60
2019-01-27T22:15:00.035Z,85.70
2019-01-27T22:17:30.500Z,85.80
2019-01-27T22:20:01.122Z,86.10
2019-01-27T22:22:33.082Z,86.10
2019-01-27T22:25:03.469Z,86.30
2019-01-27T22:27:33.851Z,86.20
2019-01-27T22:30:05.713Z,86.30
2019-01-27T22:32:36.235Z,86.10
2019-01-27T22:35:06.970Z,86.30
2019-01-27T22:37:37.601Z,86.50
2019-01-27T22:40:08.868Z,86.80
2019-01-27T22:42:39.636Z,87.00
2019-01-27T22:45:11.082Z,87.30
2019-01-27T22:47:41.554Z,87.60
2019-01-27T22:50:15.219Z,88.00
2019-01-27T22:52:45.553Z,88.10
2019-01-27T22:55:15.832Z,88.30
2019-01-27T22:57:46.298Z,88.20
2019-01-27T23:00:55.267Z,88.30
2019-01-27T23:03:26.424Z,88.00
2019-01-27T23:05:57.120Z,87.60
2019-01-27T23:08:27.836Z,87.40
2019-01-27T23:10:58.334Z,87.20
2019-01-27T23:13:28.938Z,87.30
2019-01-27T23:15:59.667Z,87.20
2019-01-27T23:18:30.072Z,87.10
2019-01-27T23:21:01.481Z,87.30
2019-01-27T23:23:33.224Z,87.20
2019-01-27T23:26:03.702Z,87.30
2019-01-27T23:28:34.256Z,87.40
2019-01-27T23:31:04.860Z,87.20
2019-01-27T23:33:35.304Z,87.40
2019-01-27T23:36:05.661Z,87.30
2019-01-27T23:38:36.226Z,87.30
2019-01-27T23:41:06.637Z,87.30
2019-01-27T23:43:37.238Z,87.30
2019-01-27T23:46:07.845Z,87.40
2019-01-27T23:48:38.708Z,87.40
2019-01-27T23:51:09.120Z,87.30
2019-01-27T23:53:39.648Z,87.50
2019-01-27T23:56:10.102Z,87.40
2019-01-27T23:58:40.461Z,87.30
